createdAt,value
2017-08-02T00:00:32.427Z,88.00
2017-08-02T00:03:00.756Z,88.30
2017-08-02T00:05:29.092Z,88.50
2017-08-02T00:07:57.407Z,88.70
2017-08-02T00:10:25.736Z,89.00
2017-08-02T00:12:54.051Z,89.30
2017-08-02T00:15:22.382Z,89.70
2017-08-02T00:17:50.693Z,90.00
2017-08-02T00:20:19.031Z,90.00
2017-08-02T00:22:47.337Z,90.10
2017-08-02T00:25:15.657Z,90.20
2017-08-02T00:27:43.991Z,90.20
2017-08-02T00:30:12.320Z,90.10
2017-08-02T00:32:40.651Z,90.10
2017-08-02T00:35:08.979Z,90.10
2017-08-02T00:37:37.324Z,90.10
2017-08-02T00:40:05.637Z,90.10
2017-08-02T00:42:33.979Z,90.00
2017-08-02T00:45:02.298Z,90.00
2017-08-02T00:47:30.637Z,90.10
2017-08-02T00:49:58.957Z,90.20
2017-08-02T00:52:27.295Z,90.40
2017-08-02T00:54:55.619Z,90.50
2017-08-02T00:57:23.944Z,90.40
2017-08-02T00:59:52.281Z,90.30
2017-08-02T01:02:20.601Z,90.30
2017-08-02T01:04:48.940Z,90.60
2017-08-02T01:07:17.258Z,90.20
2017-08-02T01:09:45.680Z,90.20
2017-08-02T01:12:13.995Z,90.10
2017-08-02T01:14:42.331Z,90.10
2017-08-02T01:17:10.683Z,90.10
2017-08-02T01:19:39.023Z,90.00
2017-08-02T01:22:07.345Z,90.10
2017-08-02T01:24:35.685Z,90.10
2017-08-02T01:27:03.999Z,90.00
2017-08-02T01:29:32.307Z,90.10
2017-08-02T01:32:00.635Z,90.00
2017-08-02T01:34:28.947Z,90.00
2017-08-02T01:36:57.287Z,90.00
2017-08-02T01:39:25.598Z,90.00
2017-08-02T01:41:53.936Z,90.30
2017-08-02T01:44:22.247Z,90.50
2017-08-02T01:46:50.581Z,90.50
2017-08-02T01:49:18.891Z,90.60
2017-08-02T01:51:47.228Z,90.60
2017-08-02T01:54:15.535Z,90.60
2017-08-02T01:56:43.870Z,90.50
2017-08-02T01:59:12.187Z,90.60
2017-08-02T02:01:40.512Z,90.70
2017-08-02T02:04:08.848Z,90.70
2017-08-02T02:06:37.158Z,90.70
2017-08-02T02:09:05.490Z,90.90
2017-08-02T02:11:33.803Z,91.00
2017-08-02T02:14:02.145Z,90.90
2017-08-02T02:16:30.471Z,90.80
2017-08-02T02:18:58.804Z,90.70
2017-08-02T02:21:27.118Z,90.70
2017-08-02T02:23:55.448Z,90.70
2017-08-02T02:26:23.763Z,91.00
2017-08-02T02:28:52.096Z,90.60
2017-08-02T02:31:20.431Z,90.50
2017-08-02T02:33:48.769Z,90.50
2017-08-02T02:36:17.107Z,90.50
2017-08-02T02:38:45.418Z,90.30
2017-08-02T02:41:13.750Z,90.30
2017-08-02T02:43:42.096Z,90.30
2017-08-02T02:46:10.444Z,90.10
2017-08-02T02:48:38.767Z,90.00
2017-08-02T02:51:07.097Z,90.00
2017-08-02T02:53:35.413Z,90.10
2017-08-02T02:56:03.744Z,90.10
2017-08-02T02:58:32.073Z,90.10
2017-08-02T03:01:00.405Z,90.10
2017-08-02T03:03:28.707Z,90.10
2017-08-02T03:05:57.012Z,90.00
2017-08-02T03:08:25.353Z,90.00
2017-08-02T03:10:53.664Z,90.00
2017-08-02T03:13:21.231Z,89.90
2017-08-02T03:15:49.547Z,89.90
2017-08-02T03:18:17.882Z,90.00
2017-08-02T03:20:46.194Z,89.90
2017-08-02T03:23:14.536Z,89.90
2017-08-02T03:25:42.085Z,89.80
2017-08-02T03:28:10.460Z,89.90
2017-08-02T03:30:38.777Z,89.80
2017-08-02T03:33:07.104Z,90.20
2017-08-02T03:35:35.447Z,89.80
2017-08-02T03:38:03.749Z,90.00
2017-08-02T03:40:32.089Z,90.00
2017-08-02T03:43:00.412Z,89.80
2017-08-02T03:45:28.740Z,90.00
2017-08-02T03:47:57.057Z,90.00
2017-08-02T03:50:25.391Z,90.00
2017-08-02T03:52:53.711Z,90.00
2017-08-02T03:55:22.014Z,90.00
2017-08-02T03:57:50.349Z,90.00
2017-08-02T04:00:18.666Z,90.00
2017-08-02T04:02:46.239Z,90.00
2017-08-02T04:05:14.556Z,90.00
2017-08-02T04:07:42.894Z,90.00
2017-08-02T04:10:11.208Z,90.00
2017-08-02T04:12:39.544Z,90.00
2017-08-02T04:15:07.855Z,90.10
2017-08-02T04:17:36.193Z,90.10
2017-08-02T04:20:04.498Z,90.00
2017-08-02T04:22:32.843Z,90.10
2017-08-02T04:25:01.151Z,90.10
2017-08-02T04:27:29.472Z,90.10
2017-08-02T04:29:57.811Z,90.20
2017-08-02T04:32:26.133Z,90.10
2017-08-02T04:34:54.466Z,90.00
2017-08-02T04:37:22.791Z,90.40
2017-08-02T04:39:50.357Z,90.00
2017-08-02T04:42:18.659Z,89.90
2017-08-02T04:44:47.002Z,89.90
2017-08-02T04:47:15.323Z,89.80
2017-08-02T04:49:43.647Z,90.00
2017-08-02T04:52:11.966Z,89.70
2017-08-02T04:54:40.296Z,88.50
2017-08-02T04:57:08.677Z,87.60
2017-08-02T04:59:36.978Z,86.20
2017-08-02T05:02:05.309Z,84.30
2017-08-02T05:04:33.627Z,82.30
2017-08-02T05:07:01.960Z,82.50
2017-08-02T05:09:29.494Z,82.30
2017-08-02T05:11:57.825Z,82.30
2017-08-02T05:14:26.136Z,81.00
2017-08-02T05:16:54.460Z,80.30
2017-08-02T05:19:22.777Z,80.20
2017-08-02T05:21:51.113Z,79.60
2017-08-02T05:24:19.428Z,79.50
2017-08-02T05:26:47.764Z,80.90
2017-08-02T05:29:16.068Z,81.80
2017-08-02T05:31:44.384Z,82.70
2017-08-02T05:34:12.718Z,83.10
2017-08-02T05:36:41.028Z,83.40
2017-08-02T05:39:09.359Z,83.80
2017-08-02T05:41:36.909Z,83.80
2017-08-02T05:44:04.470Z,84.10
2017-08-02T05:46:32.766Z,84.30
2017-08-02T05:49:01.092Z,83.00
2017-08-02T05:51:29.428Z,82.50
2017-08-02T05:53:57.785Z,82.40
2017-08-02T05:56:26.090Z,82.60
2017-08-02T05:58:54.400Z,82.90
2017-08-02T06:01:22.732Z,82.80
2017-08-02T06:03:51.041Z,82.60
2017-08-02T06:06:20.209Z,82.40
2017-08-02T06:08:48.520Z,82.20
2017-08-02T06:11:16.850Z,81.70
2017-08-02T06:13:45.158Z,81.30
2017-08-02T06:16:13.500Z,81.10
2017-08-02T06:18:41.811Z,81.20
2017-08-02T06:21:10.151Z,81.20
2017-08-02T06:23:38.460Z,81.40
2017-08-02T06:26:06.771Z,81.40
2017-08-02T06:28:35.106Z,81.60
2017-08-02T06:31:03.417Z,81.70
2017-08-02T06:33:31.745Z,81.70
2017-08-02T06:36:00.059Z,81.60
2017-08-02T06:38:28.402Z,81.00
2017-08-02T06:40:56.707Z,80.30
2017-08-02T06:43:25.030Z,79.80
2017-08-02T06:45:53.355Z,79.60
2017-08-02T06:48:21.687Z,79.10
2017-08-02T06:50:50.004Z,78.80
2017-08-02T06:53:18.349Z,78.30
2017-08-02T06:55:46.666Z,77.20
2017-08-02T06:58:14.972Z,76.00
2017-08-02T07:00:43.315Z,75.00
2017-08-02T07:03:11.628Z,73.80
2017-08-02T07:05:39.959Z,73.10
2017-08-02T07:08:08.268Z,73.00
2017-08-02T07:10:36.598Z,72.10
2017-08-02T07:13:04.906Z,71.50
2017-08-02T07:15:33.233Z,71.10
2017-08-02T07:18:01.545Z,70.50
2017-08-02T07:20:29.873Z,69.40
2017-08-02T07:22:58.184Z,69.20
2017-08-02T07:25:26.521Z,69.00
2017-08-02T07:27:54.832Z,67.90
2017-08-02T07:30:23.146Z,67.30
2017-08-02T07:32:51.477Z,66.40
2017-08-02T07:35:19.015Z,66.40
2017-08-02T07:37:47.349Z,64.50
2017-08-02T07:40:15.656Z,63.70
2017-08-02T07:42:43.990Z,63.20
2017-08-02T07:45:12.302Z,62.30
2017-08-02T07:47:40.634Z,61.00
2017-08-02T07:52:18.312Z,60.60
2017-08-02T07:54:46.623Z,59.60
2017-08-02T07:57:14.928Z,59.60
2017-08-02T07:59:43.256Z,59.70
2017-08-02T08:02:11.560Z,59.30
2017-08-02T08:04:39.895Z,59.20
2017-08-02T08:07:08.200Z,59.30
2017-08-02T08:09:36.539Z,59.20
2017-08-02T08:12:04.847Z,58.10
2017-08-02T08:14:33.184Z,57.50
2017-08-02T08:17:01.495Z,57.70
2017-08-02T08:19:29.807Z,57.40
2017-08-02T08:21:58.145Z,57.40
2017-08-02T08:24:26.460Z,57.50
2017-08-02T08:26:54.800Z,57.30
2017-08-02T08:29:23.115Z,57.40
2017-08-02T08:31:51.442Z,57.40
2017-08-02T08:34:19.745Z,56.70
2017-08-02T08:36:48.083Z,56.50
2017-08-02T08:39:16.415Z,56.20
2017-08-02T08:41:44.752Z,56.20
2017-08-02T08:44:13.067Z,55.90
2017-08-02T08:46:41.382Z,55.60
2017-08-02T08:49:09.714Z,55.60
2017-08-02T08:51:37.260Z,55.60
2017-08-02T08:54:05.597Z,55.10
2017-08-02T08:56:33.918Z,54.90
2017-08-02T08:59:02.248Z,54.50
2017-08-02T09:01:30.559Z,54.40
2017-08-02T09:03:58.891Z,53.40
2017-08-02T09:06:27.196Z,53.40
2017-08-02T09:08:55.531Z,52.90
2017-08-02T09:11:23.834Z,52.80
2017-08-02T09:13:52.139Z,52.60
2017-08-02T09:16:20.477Z,52.20
2017-08-02T09:18:48.778Z,52.30
2017-08-02T09:21:17.112Z,53.00
2017-08-02T09:23:45.423Z,52.90
2017-08-02T09:26:13.750Z,53.10
2017-08-02T09:28:42.059Z,52.80
2017-08-02T09:31:10.392Z,53.30
2017-08-02T09:33:38.701Z,53.70
2017-08-02T09:36:07.008Z,53.90
2017-08-02T09:38:35.340Z,54.10
2017-08-02T09:41:03.644Z,54.20
2017-08-02T09:43:31.984Z,54.00
2017-08-02T09:46:00.294Z,53.90
2017-08-02T09:48:28.626Z,53.80
2017-08-02T09:50:56.931Z,54.00
2017-08-02T09:53:25.272Z,54.30
2017-08-02T09:55:53.584Z,54.40
2017-08-02T09:58:21.919Z,54.70
2017-08-02T10:00:50.233Z,54.90
2017-08-02T10:03:18.594Z,55.30
2017-08-02T10:05:46.910Z,55.60
2017-08-02T10:08:15.219Z,55.20
2017-08-02T10:10:43.556Z,54.70
2017-08-02T10:13:11.865Z,54.70
2017-08-02T10:15:40.196Z,55.70
2017-08-02T10:18:08.497Z,54.40
2017-08-02T10:20:36.826Z,54.00
2017-08-02T10:23:05.135Z,53.90
2017-08-02T10:25:33.463Z,52.50
2017-08-02T10:28:01.776Z,52.40
2017-08-02T10:30:29.339Z,52.40
2017-08-02T10:32:57.647Z,50.50
2017-08-02T10:35:25.981Z,50.20
2017-08-02T10:37:54.287Z,50.10
2017-08-02T10:40:22.591Z,49.80
2017-08-02T10:42:50.918Z,50.10
2017-08-02T10:45:19.228Z,50.20
2017-08-02T10:47:47.554Z,50.00
2017-08-02T10:50:15.868Z,50.30
2017-08-02T10:52:44.207Z,50.20
2017-08-02T10:55:12.514Z,48.60
2017-08-02T10:57:40.840Z,48.70
2017-08-02T11:00:09.138Z,49.20
2017-08-02T11:02:37.492Z,49.60
2017-08-02T11:05:05.801Z,49.60
2017-08-02T11:07:34.118Z,49.70
2017-08-02T11:10:02.448Z,49.10
2017-08-02T11:12:30.780Z,49.00
2017-08-02T11:14:59.109Z,48.40
2017-08-02T11:17:27.428Z,48.20
2017-08-02T11:19:55.756Z,46.60
2017-08-02T11:22:24.084Z,45.60
2017-08-02T11:24:52.414Z,44.80
2017-08-02T11:27:20.744Z,43.80
2017-08-02T11:29:49.053Z,44.10
2017-08-02T11:32:16.623Z,44.10
2017-08-02T11:34:44.951Z,44.00
2017-08-02T11:37:13.283Z,43.60
2017-08-02T11:39:41.604Z,42.90
2017-08-02T11:42:09.950Z,42.30
2017-08-02T11:44:38.256Z,41.70
2017-08-02T11:47:06.584Z,39.80
2017-08-02T11:49:34.899Z,39.30
2017-08-02T11:52:03.207Z,39.40
2017-08-02T11:54:31.542Z,39.30
2017-08-02T11:56:59.855Z,40.50
2017-08-02T11:59:28.186Z,41.00
2017-08-02T12:01:56.505Z,41.10
2017-08-02T12:04:24.833Z,40.50
2017-08-02T12:06:53.157Z,40.10
2017-08-02T12:09:21.486Z,40.00
2017-08-02T12:11:49.812Z,40.10
2017-08-02T12:14:18.121Z,40.10
2017-08-02T12:16:46.452Z,39.50
2017-08-02T12:19:14.766Z,39.60
2017-08-02T12:21:43.091Z,39.60
2017-08-02T12:24:11.396Z,39.60
2017-08-02T12:26:39.724Z,39.90
2017-08-02T12:29:08.037Z,39.80
2017-08-02T12:31:36.366Z,40.00
2017-08-02T12:34:04.665Z,40.00
2017-08-02T12:36:32.982Z,40.30
2017-08-02T12:39:01.311Z,40.60
2017-08-02T12:41:29.639Z,40.80
2017-08-02T12:43:57.971Z,41.10
2017-08-02T12:46:26.285Z,41.70
2017-08-02T12:48:54.610Z,42.10
2017-08-02T12:51:22.949Z,41.90
2017-08-02T12:53:51.275Z,42.30
2017-08-02T12:56:19.600Z,42.70
2017-08-02T12:58:47.916Z,42.50
2017-08-02T13:01:16.293Z,42.20
2017-08-02T13:03:44.599Z,42.50
2017-08-02T13:06:12.945Z,43.00
2017-08-02T13:08:41.254Z,42.90
2017-08-02T13:11:08.822Z,42.90
2017-08-02T13:13:37.135Z,43.00
2017-08-02T13:16:05.443Z,43.00
2017-08-02T13:18:33.768Z,43.20
2017-08-02T13:21:02.079Z,44.10
2017-08-02T13:23:30.412Z,44.60
2017-08-02T13:25:58.725Z,43.90
2017-08-02T13:28:27.081Z,43.50
2017-08-02T13:30:55.391Z,43.20
2017-08-02T13:33:23.691Z,43.20
2017-08-02T13:35:52.087Z,44.30
2017-08-02T13:38:20.395Z,44.40
2017-08-02T13:40:48.735Z,44.70
2017-08-02T13:43:17.053Z,45.20
2017-08-02T13:45:45.391Z,45.60
2017-08-02T13:48:13.709Z,45.80
2017-08-02T13:50:42.054Z,45.40
2017-08-02T13:53:10.376Z,45.60
2017-08-02T13:55:38.683Z,46.00
2017-08-02T13:58:07.026Z,46.20
2017-08-02T14:00:35.329Z,47.00
2017-08-02T14:03:02.895Z,46.90
2017-08-02T14:05:31.203Z,46.20
2017-08-02T14:07:59.537Z,45.80
2017-08-02T14:10:27.847Z,45.70
2017-08-02T14:12:56.191Z,45.80
2017-08-02T14:15:24.503Z,46.40
2017-08-02T14:17:52.827Z,47.30
2017-08-02T14:20:21.155Z,47.60
2017-08-02T14:22:49.463Z,47.20
2017-08-02T14:25:17.790Z,47.50
2017-08-02T14:27:46.109Z,47.60
2017-08-02T14:30:14.439Z,47.40
2017-08-02T14:32:42.749Z,47.40
2017-08-02T14:35:10.318Z,47.40
2017-08-02T14:37:38.640Z,47.80
2017-08-02T14:40:07.004Z,48.00
2017-08-02T14:42:35.313Z,48.00
2017-08-02T14:45:03.622Z,48.00
2017-08-02T14:47:31.191Z,48.00
2017-08-02T14:49:59.494Z,49.60
2017-08-02T14:52:27.828Z,49.60
2017-08-02T14:54:56.139Z,49.50
2017-08-02T14:57:24.464Z,49.60
2017-08-02T14:59:51.996Z,49.60
2017-08-02T15:02:20.327Z,49.20
2017-08-02T15:04:48.633Z,48.90
2017-08-02T15:07:16.966Z,49.00
2017-08-02T15:09:45.290Z,49.00
2017-08-02T15:12:13.625Z,48.70
2017-08-02T15:14:41.967Z,48.50
2017-08-02T15:17:10.275Z,48.20
2017-08-02T15:19:38.608Z,48.80
2017-08-02T15:22:06.917Z,48.30
2017-08-02T15:24:35.255Z,48.60
2017-08-02T15:27:03.559Z,49.50
2017-08-02T15:29:31.885Z,48.50
2017-08-02T15:32:00.200Z,49.10
2017-08-02T15:34:28.535Z,48.70
2017-08-02T15:36:56.838Z,49.20
2017-08-02T15:39:25.170Z,49.30
2017-08-02T15:41:53.492Z,49.00
2017-08-02T15:44:21.032Z,49.00
2017-08-02T15:46:49.365Z,49.40
2017-08-02T15:49:17.671Z,49.60
2017-08-02T15:51:46.011Z,49.10
2017-08-02T15:54:14.319Z,49.00
2017-08-02T15:56:42.643Z,48.90
2017-08-02T15:59:10.951Z,48.90
2017-08-02T16:01:39.279Z,49.10
2017-08-02T16:04:07.583Z,49.40
2017-08-02T16:06:35.920Z,49.30
2017-08-02T16:09:04.243Z,49.60
2017-08-02T16:11:32.586Z,49.30
2017-08-02T16:14:00.899Z,49.60
2017-08-02T16:16:29.211Z,49.80
2017-08-02T16:18:57.557Z,50.00
2017-08-02T16:21:25.867Z,50.30
2017-08-02T16:23:54.208Z,51.20
2017-08-02T16:26:22.512Z,51.30
2017-08-02T16:28:50.840Z,51.30
2017-08-02T16:31:19.148Z,51.60
2017-08-02T16:33:47.478Z,52.30
2017-08-02T16:36:15.787Z,53.20
2017-08-02T16:38:44.120Z,53.20
2017-08-02T16:41:11.664Z,53.20
2017-08-02T16:43:39.992Z,53.90
2017-08-02T16:46:08.300Z,54.70
2017-08-02T16:48:36.606Z,55.10
2017-08-02T16:51:04.951Z,55.40
2017-08-02T16:53:33.257Z,56.70
2017-08-02T16:56:01.603Z,57.50
2017-08-02T16:58:29.915Z,58.30
2017-08-02T17:00:58.247Z,59.10
2017-08-02T17:03:26.555Z,60.70
2017-08-02T17:05:55.004Z,63.00
2017-08-02T17:08:23.312Z,65.30
2017-08-02T17:10:51.661Z,68.00
2017-08-02T17:13:19.958Z,69.70
2017-08-02T17:15:47.499Z,69.70
2017-08-02T17:18:15.823Z,71.30
2017-08-02T17:20:44.136Z,72.40
2017-08-02T17:23:12.462Z,73.00
2017-08-02T17:25:40.781Z,73.80
2017-08-02T17:28:09.107Z,73.90
2017-08-02T17:30:37.407Z,74.80
2017-08-02T17:33:05.739Z,75.20
2017-08-02T17:35:34.048Z,75.60
2017-08-02T17:38:02.391Z,76.50
2017-08-02T17:40:30.698Z,78.20
2017-08-02T17:42:59.028Z,78.10
2017-08-02T17:45:27.331Z,78.30
2017-08-02T17:47:55.644Z,78.80
2017-08-02T17:50:23.970Z,79.30
2017-08-02T17:52:52.278Z,79.50
2017-08-02T17:55:20.599Z,80.00
2017-08-02T17:57:48.917Z,80.60
2017-08-02T18:00:17.238Z,81.30
2017-08-02T18:02:45.538Z,81.30
2017-08-02T18:05:13.892Z,81.30
2017-08-02T18:07:42.209Z,81.60
2017-08-02T18:10:09.761Z,81.60
2017-08-02T18:12:38.095Z,82.40
2017-08-02T18:15:06.398Z,82.60
2017-08-02T18:17:34.726Z,83.00
2017-08-02T18:20:03.033Z,83.80
2017-08-02T18:22:31.356Z,84.00
2017-08-02T18:24:59.670Z,84.30
2017-08-02T18:27:28.021Z,84.50
2017-08-02T18:29:56.331Z,84.60
2017-08-02T18:32:24.696Z,84.80
2017-08-02T18:34:53.017Z,85.10
2017-08-02T18:37:22.242Z,85.30
2017-08-02T18:39:50.576Z,85.70
2017-08-02T18:42:18.892Z,86.30
2017-08-02T18:44:47.226Z,86.20
2017-08-02T18:47:15.551Z,86.40
2017-08-02T18:49:43.884Z,86.60
2017-08-02T18:52:12.187Z,87.00
2017-08-02T18:54:40.520Z,87.10
2017-08-02T18:57:08.845Z,87.10
2017-08-02T18:59:37.171Z,86.90
2017-08-02T19:02:05.480Z,86.90
2017-08-02T19:04:33.807Z,87.00
2017-08-02T19:07:02.111Z,87.00
2017-08-02T19:09:30.415Z,87.10
2017-08-02T19:11:58.742Z,87.10
2017-08-02T19:14:27.050Z,87.20
2017-08-02T19:16:55.388Z,87.30
2017-08-02T19:19:23.687Z,87.40
2017-08-02T19:21:52.047Z,87.70
2017-08-02T19:24:20.362Z,87.80
2017-08-02T19:26:48.687Z,88.00
2017-08-02T19:29:16.989Z,88.10
2017-08-02T19:31:45.319Z,88.10
2017-08-02T19:34:13.628Z,88.20
2017-08-02T19:36:41.958Z,88.30
2017-08-02T19:39:10.267Z,88.40
2017-08-02T19:41:38.578Z,88.50
2017-08-02T19:44:06.902Z,88.70
2017-08-02T19:46:35.208Z,88.50
2017-08-02T19:49:03.545Z,88.50
2017-08-02T19:51:31.856Z,88.50
2017-08-02T19:54:00.182Z,88.70
2017-08-02T19:56:28.493Z,88.80
2017-08-02T19:58:56.827Z,88.80
2017-08-02T20:01:25.136Z,88.80
2017-08-02T20:03:53.464Z,88.90
2017-08-02T20:06:21.771Z,89.00
2017-08-02T20:08:50.098Z,89.00
2017-08-02T20:11:18.430Z,89.10
2017-08-02T20:13:46.733Z,89.20
2017-08-02T20:16:15.064Z,89.30
2017-08-02T20:18:43.379Z,89.40
2017-08-02T20:21:11.706Z,89.50
2017-08-02T20:23:40.014Z,89.50
2017-08-02T20:26:08.360Z,89.60
2017-08-02T20:28:36.679Z,89.70
2017-08-02T20:31:05.036Z,89.70
2017-08-02T20:33:33.357Z,89.80
2017-08-02T20:36:00.915Z,89.70
2017-08-02T20:38:29.254Z,89.70
2017-08-02T20:40:56.814Z,89.80
2017-08-02T20:43:25.147Z,89.90
2017-08-02T20:45:53.456Z,90.00
2017-08-02T20:48:21.783Z,90.00
2017-08-02T20:50:50.083Z,90.10
2017-08-02T20:53:18.407Z,90.10
2017-08-02T20:55:46.716Z,90.10
2017-08-02T20:58:15.050Z,90.10
2017-08-02T21:00:43.363Z,90.20
2017-08-02T21:03:11.667Z,90.20
2017-08-02T21:05:40.000Z,90.20
2017-08-02T21:08:08.308Z,90.20
2017-08-02T21:10:36.628Z,90.10
2017-08-02T21:13:04.938Z,90.00
2017-08-02T21:15:32.499Z,90.00
2017-08-02T21:18:00.799Z,90.00
2017-08-02T21:20:29.135Z,90.00
2017-08-02T21:22:57.439Z,89.50
2017-08-02T21:25:25.781Z,88.80
2017-08-02T21:27:54.086Z,87.80
2017-08-02T21:30:22.393Z,86.50
2017-08-02T21:32:50.728Z,85.40
2017-08-02T21:35:19.041Z,84.70
2017-08-02T21:37:47.362Z,84.70
2017-08-02T21:40:14.916Z,84.60
2017-08-02T21:42:43.259Z,83.40
2017-08-02T21:45:11.563Z,83.40
2017-08-02T21:47:39.906Z,84.20
2017-08-02T21:50:08.220Z,84.50
2017-08-02T21:52:36.586Z,85.00
2017-08-02T21:55:04.899Z,85.00
2017-08-02T21:57:33.209Z,85.40
2017-08-02T22:00:01.541Z,85.20
2017-08-02T22:02:29.855Z,86.00
2017-08-02T22:04:58.183Z,86.10
2017-08-02T22:07:26.486Z,85.90
2017-08-02T22:09:54.813Z,86.30
2017-08-02T22:12:23.119Z,86.60
2017-08-02T22:14:51.463Z,86.80
2017-08-02T22:17:19.769Z,87.30
2017-08-02T22:19:48.116Z,87.40
2017-08-02T22:22:16.430Z,87.10
2017-08-02T22:24:43.966Z,87.10
2017-08-02T22:27:12.300Z,87.20
2017-08-02T22:29:40.608Z,87.50
2017-08-02T22:32:08.943Z,87.60
2017-08-02T22:34:37.256Z,87.90
2017-08-02T22:37:05.578Z,87.90
2017-08-02T22:39:33.883Z,88.10
2017-08-02T22:42:02.221Z,88.20
2017-08-02T22:44:30.531Z,88.30
2017-08-02T22:46:58.886Z,88.10
2017-08-02T22:49:27.198Z,87.90
2017-08-02T22:51:55.508Z,87.90
2017-08-02T22:54:23.833Z,87.80
2017-08-02T22:56:52.143Z,87.70
2017-08-02T22:59:20.480Z,87.90
2017-08-02T23:01:48.813Z,88.20
2017-08-02T23:04:17.171Z,88.50
2017-08-02T23:06:45.480Z,88.50
2017-08-02T23:09:13.791Z,88.30
2017-08-02T23:11:42.116Z,88.40
2017-08-02T23:14:10.424Z,88.50
2017-08-02T23:16:38.773Z,88.70
2017-08-02T23:19:07.083Z,88.70
2017-08-02T23:21:35.430Z,88.70
2017-08-02T23:24:03.744Z,89.00
2017-08-02T23:26:32.083Z,89.00
2017-08-02T23:29:00.392Z,89.30
2017-08-02T23:31:28.713Z,89.50
2017-08-02T23:33:57.045Z,89.60
2017-08-02T23:36:25.367Z,89.60
2017-08-02T23:38:53.696Z,89.70
2017-08-02T23:41:22.024Z,89.50
2017-08-02T23:43:50.350Z,89.60
2017-08-02T23:46:18.871Z,89.70
2017-08-02T23:48:47.261Z,89.70
2017-08-02T23:51:15.571Z,89.80
2017-08-02T23:53:43.899Z,89.80
2017-08-02T23:56:12.209Z,89.80
2017-08-02T23:58:40.510Z,89.90
